Etusivu
METAR-TAF:

METAR-TAF

Lentoasemat :

Schwäbisch Hall, Saksa

Leveyspiiri: 49-07-06N, Pituuspiiri: 9-47-02E, korkeus merenpinnasta: 398 m

Tämänhetkinen sää

Tämä raportti tehtiin 37 minuuttia sitten, kello 05.20 UTC
tyyntä
Lämpötila 15°C
Kosteus 100%
Ilmanpaine 1015 hPa
Näkyvyys 10 km tai enemmän
ei pilviä alle 1500 m:ssä eikä cumulonimbus-pilviä

METAR: EDTY 170520Z 00000KT CAVOK 15/15 Q1015

Aika: 07:57 (05:57 UTC)

Sääennuste

Tämä raportti tehtiin 57 minuuttia sitten, kello 05.00 UTC
Ennuste voimassa 17. päivästä klo 06 UTC - 17. päivään klo 15 UTC
Tuuli 3 kn eri suunnista
Näkyvyys 10 km tai enemmän
ei pilviä alle 1500 m:ssä eikä cumulonimbus-pilviä
Tulossa
17. päivästä klo 07 UTC - 17. päivään klo 09 UTC
Tuuli 6 kn lännestä

TAF: EDTY 170500Z 1706/1715 VRB03KT CAVOK BECMG 1707/1709 27006KT

Säähavainnot ja -ennusteet yli 4000 lentoasemalta (METAR- ja TAF-raportit).

Käytössä olevat sääasemat on merkitty karttaan keltaisilla ja punaisilla pisteillä.

Aseta hiiri pisteen päälle nähdäksesi sääaseman nimen.

Klikkaa sitten nähdäksesi säähavainnot ja -ennusteet.

Kartan vaihtaminen: klikkaa mustalla rastilla varustettuja vihreitä pisteitä, niin voit zoomata sisään; viivalla varustettua vihreää pistettä, niin voit zoomata ulos tai vihreitä nuolia, niin pääset viereisille kartoille.


METAR-TAF: